ADDS METAR Data INFO
IDs: Format: Raw Decoded Include TAF

Data at: 0347 UTC 20 Nov 2017

METAR for:KEDJ (Bellefontaine Rgnl, OH, US)
Text:KEDJ 200335Z AUTO 27009KT 10SM FEW018 M03/M05 A3010 RMK AO1
Temperature: -3.0°C ( 27°F)
Dewpoint: -5.0°C ( 23°F) [RH = 86%]
Pressure (altimeter):30.10 inches Hg (1019.4 mb)
Winds:from the W (270 degrees) at 10 MPH (9 knots; 4.6 m/s)
Visibility:10 or more sm (16+ km)
Ceiling:at least 12,000 feet AGL
Clouds: few clouds at 1800 feet AGL
QC Flag:automated observation with no human augmentation